createdAt,value
2019-04-04T00:01:37.175Z,94260.03
2019-04-04T00:04:08.027Z,94258.15
2019-04-04T00:06:38.887Z,94259.48
2019-04-04T00:09:11.594Z,94262.76
2019-04-04T00:11:42.567Z,94261.37
2019-04-04T00:14:13.576Z,94267.38
2019-04-04T00:16:46.748Z,94269.51
2019-04-04T00:19:19.620Z,94275.20
2019-04-04T00:21:50.595Z,94277.33
2019-04-04T00:24:21.791Z,94273.33
2019-04-04T00:26:52.970Z,94273.55
2019-04-04T00:29:23.783Z,94274.78
2019-04-04T00:31:54.644Z,94276.44
2019-04-04T00:34:28.069Z,94282.31
2019-04-04T00:36:58.789Z,94280.69
2019-04-04T00:39:29.594Z,94274.42
2019-04-04T00:42:00.593Z,94286.89
2019-04-04T00:44:31.533Z,94284.98
2019-04-04T00:47:02.923Z,94278.09
2019-04-04T00:49:35.414Z,94283.97
2019-04-04T00:52:10.061Z,94278.57
2019-04-04T00:54:39.267Z,94277.84
2019-04-04T00:57:10.214Z,94280.52
2019-04-04T00:59:41.388Z,94281.88
2019-04-04T01:02:12.327Z,94285.92
2019-04-04T01:04:50.282Z,94291.64
2019-04-04T01:07:22.664Z,94296.78
2019-04-04T01:09:53.608Z,94296.31
2019-04-04T01:12:24.780Z,94294.29
2019-04-04T01:14:55.773Z,94298.10
2019-04-04T01:17:26.630Z,94291.03
2019-04-04T01:19:59.149Z,94293.16
2019-04-04T01:22:30.536Z,94293.22
2019-04-04T01:25:05.986Z,94298.36
2019-04-04T01:27:37.575Z,94295.76
2019-04-04T01:30:11.901Z,94299.05
2019-04-04T01:32:42.694Z,94309.23
2019-04-04T01:35:16.605Z,94306.14
2019-04-04T01:37:47.579Z,94315.55
2019-04-04T01:40:18.923Z,94318.02
2019-04-04T01:42:51.386Z,94322.86
2019-04-04T01:45:22.238Z,94313.54
2019-04-04T01:47:55.827Z,94313.59
2019-04-04T01:50:29.152Z,94315.20
2019-04-04T01:53:00.137Z,94311.30
2019-04-04T01:55:32.936Z,94304.36
2019-04-04T01:58:03.966Z,94309.17
2019-04-04T02:00:35.000Z,94308.64
2019-04-04T02:03:06.133Z,94312.83
2019-04-04T02:05:37.039Z,94310.17
2019-04-04T02:08:09.281Z,94311.05
2019-04-04T02:10:40.433Z,94312.38
2019-04-04T02:13:11.271Z,94306.23
2019-04-04T02:15:42.853Z,94308.05
2019-04-04T02:18:15.137Z,94314.50
2019-04-04T02:20:46.027Z,94318.23
2019-04-04T02:23:17.229Z,94325.42
2019-04-04T02:25:48.190Z,94330.52
2019-04-04T02:28:19.038Z,94315.63
2019-04-04T02:30:50.042Z,94313.87
2019-04-04T02:33:21.064Z,94314.48
2019-04-04T02:35:52.313Z,94315.07
2019-04-04T02:38:27.180Z,94313.30
2019-04-04T02:40:55.716Z,94313.70
2019-04-04T02:43:28.304Z,94311.45
2019-04-04T02:45:59.218Z,94317.39
2019-04-04T02:48:30.131Z,94312.72
2019-04-04T02:51:01.434Z,94320.58
2019-04-04T02:53:32.296Z,94318.59
2019-04-04T02:56:03.711Z,94309.46
2019-04-04T02:58:34.644Z,94301.07
2019-04-04T03:01:05.508Z,94305.38
2019-04-04T03:03:41.066Z,94302.20
2019-04-04T03:06:09.389Z,94305.14
2019-04-04T03:08:40.352Z,94304.67
2019-04-04T03:11:11.182Z,94306.08
2019-04-04T03:13:42.057Z,94305.32
2019-04-04T03:16:13.276Z,94298.70
2019-04-04T03:18:44.142Z,94292.11
2019-04-04T03:21:15.215Z,94294.80
2019-04-04T03:23:46.279Z,94296.97
2019-04-04T03:26:20.193Z,94291.72
2019-04-04T03:28:50.743Z,94279.33
2019-04-04T03:31:21.678Z,94279.11
2019-04-04T03:33:53.026Z,94285.55
2019-04-04T03:36:26.594Z,94285.06
2019-04-04T03:39:00.204Z,94285.08
2019-04-04T03:41:35.821Z,94294.08
2019-04-04T03:44:10.457Z,94279.81
2019-04-04T03:46:41.267Z,94270.58
2019-04-04T03:49:12.488Z,94268.47
2019-04-04T03:51:43.344Z,94279.06
2019-04-04T03:54:22.209Z,94274.88
2019-04-04T03:56:50.454Z,94274.11
2019-04-04T03:59:21.239Z,94275.44
2019-04-04T04:01:52.562Z,94273.59
2019-04-04T04:04:27.062Z,94279.75
2019-04-04T04:06:56.066Z,94264.39
2019-04-04T04:09:27.294Z,94262.03
2019-04-04T04:11:58.769Z,94268.13
2019-04-04T04:14:29.640Z,94272.13
2019-04-04T04:17:00.520Z,94265.77
2019-04-04T04:19:33.798Z,94266.06
2019-04-04T04:22:04.967Z,94268.70
2019-04-04T04:24:36.282Z,94267.67
2019-04-04T04:27:07.156Z,94272.72
2019-04-04T04:29:38.432Z,94271.66
2019-04-04T04:32:09.536Z,94249.16
2019-04-04T04:34:40.965Z,94251.55
2019-04-04T04:37:11.936Z,94256.06
2019-04-04T04:39:43.397Z,94242.58
2019-04-04T04:42:21.310Z,94242.07
2019-04-04T04:44:52.364Z,94243.10
2019-04-04T04:47:24.159Z,94233.07
2019-04-04T04:49:55.580Z,94229.38
2019-04-04T04:52:27.889Z,94229.11
2019-04-04T04:54:58.792Z,94224.88
2019-04-04T04:57:30.393Z,94216.41
2019-04-04T05:00:01.563Z,94215.08
2019-04-04T05:02:34.886Z,94213.75
2019-04-04T05:05:07.141Z,94210.60
2019-04-04T05:07:39.078Z,94203.19
2019-04-04T05:10:15.059Z,94209.25
2019-04-04T05:12:45.996Z,94206.88
2019-04-04T05:15:16.850Z,94200.25
2019-04-04T05:17:47.715Z,94190.17
2019-04-04T05:20:18.651Z,94192.53
2019-04-04T05:22:49.490Z,94191.97
2019-04-04T05:25:20.343Z,94183.47
2019-04-04T05:27:51.259Z,94184.71
2019-04-04T05:30:24.872Z,94187.58
2019-04-04T05:32:56.586Z,94188.86
2019-04-04T05:35:31.250Z,94193.31
2019-04-04T05:38:02.705Z,94181.61
2019-04-04T05:40:33.594Z,94179.16
2019-04-04T05:43:04.911Z,94180.14
2019-04-04T05:45:39.359Z,94179.34
2019-04-04T05:48:10.752Z,94168.89
2019-04-04T05:50:43.610Z,94173.83
2019-04-04T05:53:28.346Z,94165.80
2019-04-04T05:55:59.497Z,94170.78
2019-04-04T05:58:30.399Z,94177.38
2019-04-04T06:01:07.864Z,94174.93
2019-04-04T06:03:38.774Z,94185.45
2019-04-04T06:06:10.679Z,94179.59
2019-04-04T06:08:43.373Z,94167.66
2019-04-04T06:11:20.961Z,94159.65
2019-04-04T06:13:50.680Z,94167.87
2019-04-04T06:16:21.834Z,94161.38
2019-04-04T06:18:52.626Z,94164.30
2019-04-04T06:21:23.496Z,94168.31
2019-04-04T06:23:55.978Z,94166.27
2019-04-04T06:26:26.969Z,94174.10
2019-04-04T06:29:01.422Z,94174.19
2019-04-04T06:31:35.328Z,94170.66
2019-04-04T06:34:10.081Z,94161.28
2019-04-04T06:36:38.895Z,94166.19
2019-04-04T06:39:09.731Z,94156.00
2019-04-04T06:41:41.040Z,94149.55
2019-04-04T06:44:13.118Z,94151.10
2019-04-04T06:46:44.622Z,94142.30
2019-04-04T06:49:17.753Z,94141.96
2019-04-04T06:51:48.619Z,94145.77
2019-04-04T06:54:19.635Z,94140.77
2019-04-04T06:56:50.961Z,94151.85
2019-04-04T06:59:21.814Z,94149.66
2019-04-04T07:01:52.727Z,94143.23
2019-04-04T07:04:23.752Z,94137.86
2019-04-04T07:06:59.105Z,94130.86
2019-04-04T07:09:31.599Z,94135.32
2019-04-04T07:12:06.744Z,94121.86
2019-04-04T07:14:45.732Z,94125.36
2019-04-04T07:17:16.172Z,94120.36
2019-04-04T07:19:46.252Z,94122.03
2019-04-04T07:22:20.505Z,94122.24
2019-04-04T07:25:10.332Z,94119.63
2019-04-04T07:27:43.258Z,94106.64
2019-04-04T07:30:16.454Z,94106.40
2019-04-04T07:32:47.526Z,94106.85
2019-04-04T07:35:20.917Z,94107.13
2019-04-04T07:37:57.092Z,94102.80
2019-04-04T07:40:28.213Z,94103.02
2019-04-04T07:42:59.762Z,94104.46
2019-04-04T07:45:33.751Z,94101.02
2019-04-04T07:48:07.460Z,94108.05
2019-04-04T07:50:45.330Z,94113.84
2019-04-04T07:53:16.578Z,94108.36
2019-04-04T07:55:53.914Z,94102.67
2019-04-04T07:58:26.005Z,94097.80
2019-04-04T08:00:58.295Z,94091.30
2019-04-04T08:03:30.874Z,94090.76
2019-04-04T08:06:01.766Z,94080.92
2019-04-04T08:08:34.321Z,94081.50
2019-04-04T08:11:07.499Z,94073.59
2019-04-04T08:13:38.485Z,94066.20
2019-04-04T08:16:10.562Z,94060.68
2019-04-04T08:18:46.575Z,94057.22
2019-04-04T08:21:19.186Z,94048.27
2019-04-04T08:23:50.468Z,94049.22
2019-04-04T08:26:22.253Z,94044.76
2019-04-04T08:28:53.420Z,94045.06
2019-04-04T08:31:24.794Z,94041.91
2019-04-04T08:33:59.111Z,94046.02
2019-04-04T08:36:32.296Z,94046.63
2019-04-04T08:39:03.208Z,94045.58
2019-04-04T08:42:01.668Z,94046.41
2019-04-04T08:44:46.748Z,94047.78
2019-04-04T08:47:20.621Z,94053.93
2019-04-04T08:49:51.491Z,94052.56
2019-04-04T08:52:22.468Z,94051.06
2019-04-04T08:54:53.566Z,94051.14
2019-04-04T08:57:26.102Z,94049.78
2019-04-04T08:59:57.603Z,94042.00
2019-04-04T09:02:28.684Z,94041.80
2019-04-04T09:09:08.898Z,94023.57
2019-04-04T09:11:45.344Z,94023.98
2019-04-04T09:14:18.112Z,94012.83
2019-04-04T09:16:49.569Z,94005.48
2019-04-04T09:19:20.789Z,94010.22
2019-04-04T09:21:55.062Z,93997.33
2019-04-04T09:24:26.607Z,94002.03
2019-04-04T09:27:00.970Z,94003.33
2019-04-04T09:29:32.148Z,94006.16
2019-04-04T09:32:10.754Z,93998.70
2019-04-04T09:34:41.696Z,93996.94
2019-04-04T09:37:15.451Z,93995.51
2019-04-04T09:39:46.934Z,93991.09
2019-04-04T09:42:18.321Z,93995.70
2019-04-04T09:44:52.466Z,93996.50
2019-04-04T09:47:26.846Z,93996.18
2019-04-04T09:49:57.927Z,94007.56
2019-04-04T09:52:29.040Z,94003.95
2019-04-04T09:55:01.097Z,94011.55
2019-04-04T09:57:33.999Z,94010.13
2019-04-04T10:00:15.240Z,94013.50
2019-04-04T10:02:48.585Z,94017.70
2019-04-04T10:05:23.868Z,94016.08
2019-04-04T10:07:58.068Z,94019.80
2019-04-04T10:10:29.496Z,94014.45
2019-04-04T10:13:06.578Z,94011.61
2019-04-04T10:15:39.814Z,94008.61
2019-04-04T10:18:11.186Z,94000.61
2019-04-04T10:20:43.698Z,94009.59
2019-04-04T10:23:15.420Z,94002.54
2019-04-04T10:26:12.057Z,93999.45
2019-04-04T10:29:07.498Z,93998.05
2019-04-04T10:31:38.429Z,94007.23
2019-04-04T10:34:16.234Z,93998.34
2019-04-04T10:37:07.409Z,93996.75
2019-04-04T10:39:45.843Z,93994.42
2019-04-04T10:42:16.746Z,93992.48
2019-04-04T10:44:47.688Z,94000.19
2019-04-04T10:47:21.880Z,93997.13
2019-04-04T10:49:54.729Z,93999.98
2019-04-04T10:52:27.850Z,94007.15
2019-04-04T10:55:01.491Z,94010.78
2019-04-04T10:57:34.638Z,94008.64
2019-04-04T11:00:13.140Z,94012.13
2019-04-04T11:02:44.279Z,94012.98
2019-04-04T11:05:24.397Z,94015.95
2019-04-04T11:08:01.224Z,94017.76
2019-04-04T11:10:42.285Z,94015.31
2019-04-04T11:13:17.554Z,94025.16
2019-04-04T11:15:51.414Z,94017.92
2019-04-04T11:18:25.671Z,94019.61
2019-04-04T11:21:03.502Z,94023.41
2019-04-04T11:23:34.662Z,94016.31
2019-04-04T11:26:06.356Z,94016.05
2019-04-04T11:28:42.503Z,94014.03
2019-04-04T11:31:18.065Z,94007.77
2019-04-04T11:33:48.968Z,94008.47
2019-04-04T11:36:20.156Z,94010.23
2019-04-04T11:38:52.217Z,94005.10
2019-04-04T11:41:24.677Z,94007.83
2019-04-04T11:44:01.080Z,94002.45
2019-04-04T11:46:45.903Z,93995.31
2019-04-04T11:49:18.941Z,93991.47
2019-04-04T11:51:51.481Z,93983.80
2019-04-04T11:54:22.420Z,93987.63
2019-04-04T11:56:53.344Z,93994.02
2019-04-04T11:59:24.944Z,94000.81
2019-04-04T12:01:59.279Z,94010.47
2019-04-04T12:04:33.337Z,94001.15
2019-04-04T12:07:04.742Z,94000.81
2019-04-04T12:09:36.108Z,94000.89
2019-04-04T12:12:07.099Z,93998.05
2019-04-04T12:14:38.455Z,93997.84
2019-04-04T12:17:15.732Z,93991.36
2019-04-04T12:19:47.051Z,93985.91
2019-04-04T12:22:20.809Z,93998.91
2019-04-04T12:24:51.766Z,94004.63
2019-04-04T12:27:22.608Z,93999.34
2019-04-04T12:29:53.757Z,94004.53
2019-04-04T12:32:25.339Z,94003.89
2019-04-04T12:34:56.232Z,94011.83
2019-04-04T12:37:28.999Z,94007.80
2019-04-04T12:40:00.298Z,94007.94
2019-04-04T12:42:32.004Z,94003.44
2019-04-04T12:45:05.303Z,94012.47
2019-04-04T12:47:41.630Z,94005.42
2019-04-04T12:50:14.015Z,93992.67
2019-04-04T12:52:46.854Z,93986.83
2019-04-04T12:55:19.357Z,93983.72
2019-04-04T12:57:50.329Z,93982.69
2019-04-04T13:00:26.570Z,93980.37
2019-04-04T13:02:57.730Z,93978.45
2019-04-04T13:05:33.838Z,93976.03
2019-04-04T13:08:04.543Z,93969.30
2019-04-04T13:10:38.909Z,93975.46
2019-04-04T13:13:13.311Z,93975.30
2019-04-04T13:15:48.222Z,93966.58
2019-04-04T13:18:19.510Z,93970.55
2019-04-04T13:20:51.186Z,93973.11
2019-04-04T13:23:22.996Z,93955.82
2019-04-04T13:25:56.932Z,93958.63
2019-04-04T13:28:27.846Z,93952.23
2019-04-04T13:31:02.493Z,93957.37
2019-04-04T13:33:33.398Z,93957.50
2019-04-04T13:36:27.527Z,93954.80
2019-04-04T13:39:07.008Z,93950.64
2019-04-04T13:41:44.629Z,93949.58
2019-04-04T13:44:26.051Z,93947.89
2019-04-04T13:47:09.609Z,93941.52
2019-04-04T13:49:42.180Z,93945.83
2019-04-04T13:52:29.655Z,93938.27
2019-04-04T13:55:43.663Z,93933.63
2019-04-04T13:58:47.469Z,93930.83
2019-04-04T14:01:55.048Z,93927.84
2019-04-04T14:04:27.926Z,93928.41
2019-04-04T14:07:03.078Z,93930.91
2019-04-04T14:09:36.972Z,93925.05
2019-04-04T14:12:07.912Z,93921.50
2019-04-04T14:14:45.216Z,93927.34
2019-04-04T14:17:16.256Z,93924.69
2019-04-04T14:19:47.967Z,93929.69
2019-04-04T14:22:20.310Z,93928.54
2019-04-04T14:24:53.963Z,93929.56
2019-04-04T14:27:27.354Z,93932.06
2019-04-04T14:29:59.108Z,93929.56
2019-04-04T14:32:31.810Z,93933.11
2019-04-04T14:35:03.733Z,93930.70
2019-04-04T14:37:39.041Z,93937.54
2019-04-04T14:40:15.295Z,93932.00
2019-04-04T14:43:03.430Z,93928.48
2019-04-04T14:45:39.042Z,93929.13
2019-04-04T14:48:11.097Z,93928.04
2019-04-04T14:50:47.666Z,93929.63
2019-04-04T14:53:21.848Z,93932.23
2019-04-04T14:55:53.996Z,93935.64
2019-04-04T14:58:25.520Z,93931.56
2019-04-04T15:00:56.796Z,93929.15
2019-04-04T15:03:28.493Z,93928.41
2019-04-04T15:06:00.454Z,93927.19
2019-04-04T15:08:35.765Z,93933.95
2019-04-04T15:11:23.176Z,93926.20
2019-04-04T15:13:47.202Z,93934.53
2019-04-04T15:16:25.620Z,93929.00
2019-04-04T15:18:57.027Z,93926.04
2019-04-04T15:21:28.536Z,93931.55
2019-04-04T15:24:01.836Z,93934.99
2019-04-04T15:26:34.315Z,93936.98
2019-04-04T15:29:08.835Z,93943.83
2019-04-04T15:31:44.980Z,93940.52
2019-04-04T15:34:38.380Z,93947.41
2019-04-04T15:37:15.601Z,93948.16
2019-04-04T15:39:48.664Z,93952.16
2019-04-04T15:42:28.437Z,93945.36
2019-04-04T15:45:00.428Z,93951.81
2019-04-04T15:47:36.476Z,93949.25
2019-04-04T15:50:10.328Z,93946.55
2019-04-04T15:53:03.664Z,93958.36
2019-04-04T15:55:36.358Z,93962.85
2019-04-04T15:58:16.668Z,93955.59
2019-04-04T16:00:49.383Z,93964.63
2019-04-04T16:03:27.361Z,93956.33
2019-04-04T16:06:03.597Z,93960.49
2019-04-04T16:08:36.303Z,93960.52
2019-04-04T16:11:16.819Z,93963.93
2019-04-04T16:13:55.526Z,93963.14
2019-04-04T16:16:27.511Z,93965.16
2019-04-04T16:19:08.378Z,93964.86
2019-04-04T16:21:41.170Z,93969.36
2019-04-04T16:24:12.952Z,93970.72
2019-04-04T16:26:56.653Z,93973.52
2019-04-04T16:29:28.135Z,93971.22
2019-04-04T16:32:00.380Z,93966.68
2019-04-04T16:34:37.339Z,93968.59
2019-04-04T16:37:10.420Z,93968.45
2019-04-04T16:39:42.828Z,93975.77
2019-04-04T16:42:14.481Z,93982.15
2019-04-04T16:44:48.201Z,93983.84
2019-04-04T16:48:25.188Z,93989.99
2019-04-04T16:51:10.991Z,93992.25
2019-04-04T16:54:02.724Z,93995.16
2019-04-04T16:57:02.685Z,93998.29
2019-04-04T16:59:44.779Z,94002.22
2019-04-04T17:02:16.468Z,94002.63
2019-04-04T17:04:50.500Z,94009.58
2019-04-04T17:07:26.280Z,94010.50
2019-04-04T17:09:58.033Z,94013.73
2019-04-04T17:12:29.913Z,94013.69
2019-04-04T17:15:01.796Z,94014.50
2019-04-04T17:17:41.374Z,94022.74
2019-04-04T17:20:14.855Z,94023.90
2019-04-04T17:22:52.244Z,94027.85
2019-04-04T17:25:24.168Z,94024.56
2019-04-04T17:27:57.437Z,94031.16
2019-04-04T17:30:33.545Z,94036.66
2019-04-04T17:33:09.548Z,94038.53
2019-04-04T17:35:41.919Z,94036.73
2019-04-04T17:38:13.897Z,94037.61
2019-04-04T17:40:46.547Z,94047.25
2019-04-04T17:43:22.349Z,94063.25
2019-04-04T17:45:56.426Z,94077.56
2019-04-04T17:48:32.648Z,94076.38
2019-04-04T17:51:07.888Z,94077.42
2019-04-04T17:53:47.952Z,94081.39
2019-04-04T17:56:22.439Z,94083.30
2019-04-04T17:59:03.379Z,94099.59
2019-04-04T18:01:38.440Z,94093.86
2019-04-04T18:04:10.645Z,94103.06
2019-04-04T18:06:44.533Z,94105.39
2019-04-04T18:09:16.758Z,94095.52
2019-04-04T18:11:54.060Z,94100.88
2019-04-04T18:14:26.266Z,94115.40
2019-04-04T18:16:58.621Z,94116.83
2019-04-04T18:19:31.910Z,94117.61
2019-04-04T18:22:06.752Z,94120.26
2019-04-04T18:24:40.554Z,94129.28
2019-04-04T18:27:20.873Z,94134.86
2019-04-04T18:30:00.446Z,94144.30
2019-04-04T18:32:34.201Z,94148.96
2019-04-04T18:35:17.612Z,94159.33
2019-04-04T18:38:26.185Z,94163.09
2019-04-04T18:41:21.407Z,94174.09
2019-04-04T18:43:56.441Z,94174.86
2019-04-04T18:46:29.139Z,94179.76
2019-04-04T18:49:04.830Z,94184.61
2019-04-04T18:51:41.646Z,94190.22
2019-04-04T18:54:33.366Z,94202.66
2019-04-04T18:57:07.474Z,94203.87
2019-04-04T18:59:41.720Z,94207.75
2019-04-04T19:02:16.020Z,94219.12
2019-04-04T19:04:55.928Z,94221.67
2019-04-04T19:07:39.273Z,94226.98
2019-04-04T19:10:04.223Z,94238.11
2019-04-04T19:12:36.421Z,94256.38
2019-04-04T19:15:12.376Z,94255.09
2019-04-04T19:17:44.676Z,94271.08
2019-04-04T19:20:24.289Z,94273.70
2019-04-04T19:23:04.299Z,94274.16
2019-04-04T19:25:39.792Z,94275.81
2019-04-04T19:28:16.913Z,94279.02
2019-04-04T19:30:58.466Z,94283.18
2019-04-04T19:33:39.439Z,94282.23
2019-04-04T19:36:14.657Z,94282.99
2019-04-04T19:39:00.592Z,94282.50
2019-04-04T19:41:38.212Z,94297.42
2019-04-04T19:44:10.796Z,94309.05
2019-04-04T19:46:49.869Z,94305.70
2019-04-04T19:49:23.818Z,94315.07
2019-04-04T19:51:58.790Z,94320.02
2019-04-04T19:54:44.059Z,94319.47
2019-04-04T19:57:37.159Z,94318.67
2019-04-04T20:00:27.268Z,94319.11
2019-04-04T20:03:04.199Z,94327.48
2019-04-04T20:05:44.526Z,94330.81
2019-04-04T20:08:32.557Z,94329.42
2019-04-04T20:11:10.805Z,94328.63
2019-04-04T20:13:46.495Z,94339.16
2019-04-04T20:16:19.739Z,94346.20
2019-04-04T20:19:08.443Z,94348.27
2019-04-04T20:21:41.315Z,94348.98
2019-04-04T20:24:16.334Z,94351.66
2019-04-04T20:26:53.849Z,94354.83
2019-04-04T20:29:27.777Z,94355.31
2019-04-04T20:32:14.369Z,94360.00
2019-04-04T20:35:05.300Z,94371.84
2019-04-04T20:37:38.990Z,94379.17
2019-04-04T20:40:13.064Z,94381.80
2019-04-04T20:42:46.048Z,94380.41
2019-04-04T20:45:19.935Z,94392.48
2019-04-04T20:47:53.669Z,94394.20
2019-04-04T20:50:37.954Z,94394.15
2019-04-04T20:53:08.894Z,94405.97
2019-04-04T20:55:45.324Z,94409.14
2019-04-04T20:58:20.895Z,94415.53
2019-04-04T21:00:57.080Z,94424.68
2019-04-04T21:03:35.469Z,94422.43
2019-04-04T21:06:11.287Z,94426.61
2019-04-04T21:08:48.554Z,94434.28
2019-04-04T21:11:29.100Z,94437.30
2019-04-04T21:14:02.250Z,94438.80
2019-04-04T21:16:33.317Z,94439.71
2019-04-04T21:19:10.537Z,94446.39
2019-04-04T21:21:41.773Z,94455.49
2019-04-04T21:24:16.077Z,94454.45
2019-04-04T21:26:49.598Z,94458.63
2019-04-04T21:29:25.968Z,94462.08
2019-04-04T21:31:57.134Z,94458.63
2019-04-04T21:34:28.050Z,94466.83
2019-04-04T21:37:05.483Z,94465.11
2019-04-04T21:39:36.633Z,94461.19
2019-04-04T21:42:11.415Z,94459.09
2019-04-04T21:44:45.494Z,94471.19
2019-04-04T21:47:22.461Z,94474.10
2019-04-04T21:49:53.281Z,94477.75
2019-04-04T21:52:26.621Z,94475.87
2019-04-04T21:54:58.132Z,94483.59
2019-04-04T21:57:29.163Z,94481.97
2019-04-04T22:00:00.101Z,94493.52
2019-04-04T22:02:38.654Z,94492.83
2019-04-04T22:05:19.593Z,94490.60
2019-04-04T22:07:53.671Z,94493.77
2019-04-04T22:10:24.926Z,94504.34
2019-04-04T22:13:00.575Z,94504.78
2019-04-04T22:15:34.231Z,94505.65
2019-04-04T22:18:06.454Z,94506.91
2019-04-04T22:20:43.640Z,94513.87
2019-04-04T22:23:14.591Z,94514.70
2019-04-04T22:25:50.199Z,94505.10
2019-04-04T22:28:21.520Z,94504.09
2019-04-04T22:31:00.482Z,94510.16
2019-04-04T22:33:30.086Z,94506.25
2019-04-04T22:36:00.979Z,94507.88
2019-04-04T22:38:32.186Z,94515.05
2019-04-04T22:41:03.241Z,94506.83
2019-04-04T22:43:34.381Z,94517.14
2019-04-04T22:46:05.419Z,94520.06
2019-04-04T22:48:36.406Z,94523.02
2019-04-04T22:51:07.703Z,94526.36
2019-04-04T22:53:38.650Z,94527.15
2019-04-04T22:56:09.537Z,94532.20
2019-04-04T22:58:40.461Z,94533.53
2019-04-04T23:01:11.315Z,94536.20
2019-04-04T23:03:42.549Z,94534.23
2019-04-04T23:06:13.369Z,94528.61
2019-04-04T23:08:47.107Z,94526.48
2019-04-04T23:11:17.982Z,94530.04
2019-04-04T23:13:54.642Z,94529.53
2019-04-04T23:16:25.505Z,94526.39
2019-04-04T23:18:59.610Z,94522.39
2019-04-04T23:21:30.574Z,94514.64
2019-04-04T23:24:01.440Z,94510.75
2019-04-04T23:26:32.442Z,94510.25
2019-04-04T23:29:03.265Z,94508.72
2019-04-04T23:31:34.519Z,94508.91
2019-04-04T23:34:05.370Z,94506.24
2019-04-04T23:36:36.480Z,94509.70
2019-04-04T23:39:08.539Z,94514.67
2019-04-04T23:41:39.379Z,94508.60
2019-04-04T23:44:10.254Z,94519.47
2019-04-04T23:46:41.836Z,94522.64
2019-04-04T23:49:12.754Z,94523.18
2019-04-04T23:51:47.853Z,94528.36
2019-04-04T23:54:19.120Z,94535.03
2019-04-04T23:56:50.140Z,94539.89
2019-04-04T23:59:21.465Z,94546.84
